Terminal Aerodrome Forecast
Issued by NWS

Home | Current Version | Previous Version | Text Only | Print | Product List | Glossary Off
Versions: 1 2 3 4 5 6 7 8 9 10 11 12 13 14 15 16 17 18 19 20 21 22 23 24 25 26 27 28 29 30 31 32 33 34 35 36 37 38 39 40 41 42 43 44 45 46 47 48 49 50

000
FTUS43 KLOT 230800 AAA
TAFGYY
TAF AMD
KGYY 230804Z 2308/2406 00000KT 2SM BR BKN005
      TEMPO 2308/2311 3/4SM BR
     FM231500 10006KT P6SM SCT009 BKN200
     FM231900 08008KT P6SM BKN040=

USA.gov is the U.S. government's official web portal to all federal, state and local government web resources and services.